sensor_id;sensor_type;location;lat;lon;timestamp;P1;durP1;ratioP1;P2;durP2;ratioP2
18576;SDS011;9418;52.694;13.294;2023-06-10T00:01:21;14.67;;;5.30;;
18576;SDS011;9418;52.694;13.294;2023-06-10T00:03:50;10.03;;;4.70;;
18576;SDS011;9418;52.694;13.294;2023-06-10T00:06:17;9.70;;;4.63;;
18576;SDS011;9418;52.694;13.294;2023-06-10T00:08:44;9.63;;;4.37;;
18576;SDS011;9418;52.694;13.294;2023-06-10T00:11:12;12.60;;;4.53;;
18576;SDS011;9418;52.694;13.294;2023-06-10T00:13:38;11.93;;;4.50;;
18576;SDS011;9418;52.694;13.294;2023-06-10T00:16:05;12.00;;;4.70;;
18576;SDS011;9418;52.694;13.294;2023-06-10T00:18:32;9.70;;;4.60;;
18576;SDS011;9418;52.694;13.294;2023-06-10T00:20:59;11.50;;;5.07;;
18576;SDS011;9418;52.694;13.294;2023-06-10T00:23:29;8.70;;;5.10;;
18576;SDS011;9418;52.694;13.294;2023-06-10T00:25:57;12.70;;;4.90;;
18576;SDS011;9418;52.694;13.294;2023-06-10T00:28:24;10.67;;;4.20;;
18576;SDS011;9418;52.694;13.294;2023-06-10T00:30:51;8.80;;;4.97;;
18576;SDS011;9418;52.694;13.294;2023-06-10T00:33:17;11.87;;;4.53;;
18576;SDS011;9418;52.694;13.294;2023-06-10T00:35:44;7.43;;;3.70;;
18576;SDS011;9418;52.694;13.294;2023-06-10T00:38:12;10.70;;;5.30;;
18576;SDS011;9418;52.694;13.294;2023-06-10T00:40:39;14.10;;;4.50;;
18576;SDS011;9418;52.694;13.294;2023-06-10T00:43:06;11.57;;;4.47;;
18576;SDS011;9418;52.694;13.294;2023-06-10T00:45:33;10.57;;;4.30;;
18576;SDS011;9418;52.694;13.294;2023-06-10T00:48:00;11.10;;;4.43;;
18576;SDS011;9418;52.694;13.294;2023-06-10T00:50:27;10.70;;;4.80;;
18576;SDS011;9418;52.694;13.294;2023-06-10T00:52:54;11.87;;;5.27;;
18576;SDS011;9418;52.694;13.294;2023-06-10T00:55:23;11.07;;;5.07;;
18576;SDS011;9418;52.694;13.294;2023-06-10T00:57:52;11.70;;;4.97;;
18576;SDS011;9418;52.694;13.294;2023-06-10T01:00:19;7.83;;;4.60;;
18576;SDS011;9418;52.694;13.294;2023-06-10T01:02:46;12.47;;;5.57;;
18576;SDS011;9418;52.694;13.294;2023-06-10T01:05:14;14.10;;;4.63;;
18576;SDS011;9418;52.694;13.294;2023-06-10T01:07:43;8.40;;;4.03;;
18576;SDS011;9418;52.694;13.294;2023-06-10T01:10:19;12.23;;;5.40;;
18576;SDS011;9418;52.694;13.294;2023-06-10T01:12:55;10.43;;;4.63;;
18576;SDS011;9418;52.694;13.294;2023-06-10T01:15:27;9.90;;;4.00;;
18576;SDS011;9418;52.694;13.294;2023-06-10T01:17:55;10.10;;;3.90;;
18576;SDS011;9418;52.694;13.294;2023-06-10T01:20:22;10.57;;;4.33;;
18576;SDS011;9418;52.694;13.294;2023-06-10T01:22:53;10.40;;;4.30;;
18576;SDS011;9418;52.694;13.294;2023-06-10T01:25:20;18.93;;;5.07;;
18576;SDS011;9418;52.694;13.294;2023-06-10T01:27:52;13.80;;;5.50;;
18576;SDS011;9418;52.694;13.294;2023-06-10T01:30:21;11.80;;;4.40;;
18576;SDS011;9418;52.694;13.294;2023-06-10T01:32:54;16.67;;;5.03;;
18576;SDS011;9418;52.694;13.294;2023-06-10T01:35:22;12.63;;;5.57;;
18576;SDS011;9418;52.694;13.294;2023-06-10T01:37:53;7.27;;;3.87;;
18576;SDS011;9418;52.694;13.294;2023-06-10T01:40:23;9.27;;;4.77;;
18576;SDS011;9418;52.694;13.294;2023-06-10T01:42:50;11.30;;;5.23;;
18576;SDS011;9418;52.694;13.294;2023-06-10T01:45:17;11.33;;;4.73;;
18576;SDS011;9418;52.694;13.294;2023-06-10T01:47:44;10.87;;;4.30;;
18576;SDS011;9418;52.694;13.294;2023-06-10T01:50:10;8.10;;;4.40;;
18576;SDS011;9418;52.694;13.294;2023-06-10T01:52:37;15.13;;;4.50;;
18576;SDS011;9418;52.694;13.294;2023-06-10T01:55:05;15.23;;;4.90;;
18576;SDS011;9418;52.694;13.294;2023-06-10T01:57:32;11.43;;;4.63;;
18576;SDS011;9418;52.694;13.294;2023-06-10T01:59:59;17.70;;;4.57;;
18576;SDS011;9418;52.694;13.294;2023-06-10T02:02:25;8.47;;;4.13;;
18576;SDS011;9418;52.694;13.294;2023-06-10T02:04:52;10.80;;;4.57;;
18576;SDS011;9418;52.694;13.294;2023-06-10T02:07:18;10.63;;;5.07;;
18576;SDS011;9418;52.694;13.294;2023-06-10T02:09:45;10.37;;;4.00;;
18576;SDS011;9418;52.694;13.294;2023-06-10T02:12:13;11.83;;;5.43;;
18576;SDS011;9418;52.694;13.294;2023-06-10T02:14:39;13.87;;;4.53;;
18576;SDS011;9418;52.694;13.294;2023-06-10T02:17:06;11.57;;;4.40;;
18576;SDS011;9418;52.694;13.294;2023-06-10T02:19:37;9.77;;;4.90;;
18576;SDS011;9418;52.694;13.294;2023-06-10T02:22:07;8.40;;;4.60;;
18576;SDS011;9418;52.694;13.294;2023-06-10T02:24:35;8.43;;;4.07;;
18576;SDS011;9418;52.694;13.294;2023-06-10T02:27:02;11.33;;;5.30;;
18576;SDS011;9418;52.694;13.294;2023-06-10T02:29:30;13.13;;;5.13;;
18576;SDS011;9418;52.694;13.294;2023-06-10T02:31:56;11.70;;;4.70;;
18576;SDS011;9418;52.694;13.294;2023-06-10T02:34:23;15.33;;;4.47;;
18576;SDS011;9418;52.694;13.294;2023-06-10T02:36:49;13.83;;;5.27;;
18576;SDS011;9418;52.694;13.294;2023-06-10T02:39:16;11.40;;;4.77;;
18576;SDS011;9418;52.694;13.294;2023-06-10T02:41:43;13.17;;;4.67;;
18576;SDS011;9418;52.694;13.294;2023-06-10T02:44:09;13.87;;;4.77;;
18576;SDS011;9418;52.694;13.294;2023-06-10T02:46:37;11.50;;;4.40;;
18576;SDS011;9418;52.694;13.294;2023-06-10T02:49:04;12.47;;;4.60;;
18576;SDS011;9418;52.694;13.294;2023-06-10T02:51:30;12.37;;;5.30;;
18576;SDS011;9418;52.694;13.294;2023-06-10T02:53:57;11.93;;;4.73;;
18576;SDS011;9418;52.694;13.294;2023-06-10T02:56:23;10.03;;;4.77;;
18576;SDS011;9418;52.694;13.294;2023-06-10T02:58:50;10.33;;;4.80;;
18576;SDS011;9418;52.694;13.294;2023-06-10T03:01:17;8.93;;;5.10;;
18576;SDS011;9418;52.694;13.294;2023-06-10T03:03:45;12.20;;;6.17;;
18576;SDS011;9418;52.694;13.294;2023-06-10T03:06:11;10.97;;;5.40;;
18576;SDS011;9418;52.694;13.294;2023-06-10T03:08:38;16.00;;;4.47;;
18576;SDS011;9418;52.694;13.294;2023-06-10T03:11:05;11.73;;;4.57;;
18576;SDS011;9418;52.694;13.294;2023-06-10T03:13:31;12.10;;;5.20;;
18576;SDS011;9418;52.694;13.294;2023-06-10T03:15:58;8.20;;;4.20;;
18576;SDS011;9418;52.694;13.294;2023-06-10T03:18:25;12.93;;;5.20;;
18576;SDS011;9418;52.694;13.294;2023-06-10T03:20:54;14.97;;;5.37;;
18576;SDS011;9418;52.694;13.294;2023-06-10T03:23:21;9.10;;;4.63;;
18576;SDS011;9418;52.694;13.294;2023-06-10T03:25:48;10.37;;;4.87;;
18576;SDS011;9418;52.694;13.294;2023-06-10T03:28:14;12.87;;;4.63;;
18576;SDS011;9418;52.694;13.294;2023-06-10T03:30:41;10.33;;;5.17;;
18576;SDS011;9418;52.694;13.294;2023-06-10T03:33:07;12.20;;;4.40;;
18576;SDS011;9418;52.694;13.294;2023-06-10T03:35:34;9.73;;;5.53;;
18576;SDS011;9418;52.694;13.294;2023-06-10T03:38:02;14.10;;;5.60;;
18576;SDS011;9418;52.694;13.294;2023-06-10T03:40:29;11.33;;;5.13;;
18576;SDS011;9418;52.694;13.294;2023-06-10T03:42:56;18.60;;;4.77;;
18576;SDS011;9418;52.694;13.294;2023-06-10T03:45:23;10.67;;;4.70;;
18576;SDS011;9418;52.694;13.294;2023-06-10T03:47:50;11.00;;;5.30;;
18576;SDS011;9418;52.694;13.294;2023-06-10T03:50:17;10.50;;;5.30;;
18576;SDS011;9418;52.694;13.294;2023-06-10T03:52:43;11.27;;;5.00;;
18576;SDS011;9418;52.694;13.294;2023-06-10T03:55:12;7.80;;;4.60;;
18576;SDS011;9418;52.694;13.294;2023-06-10T03:57:38;20.80;;;7.30;;
18576;SDS011;9418;52.694;13.294;2023-06-10T04:00:05;12.30;;;5.30;;
18576;SDS011;9418;52.694;13.294;2023-06-10T04:02:36;13.57;;;5.20;;
18576;SDS011;9418;52.694;13.294;2023-06-10T04:05:06;8.30;;;4.50;;
18576;SDS011;9418;52.694;13.294;2023-06-10T04:07:33;5.50;;;3.80;;
18576;SDS011;9418;52.694;13.294;2023-06-10T04:10:00;10.60;;;5.47;;
18576;SDS011;9418;52.694;13.294;2023-06-10T04:12:28;9.77;;;4.70;;
18576;SDS011;9418;52.694;13.294;2023-06-10T04:14:55;8.50;;;4.80;;
18576;SDS011;9418;52.694;13.294;2023-06-10T04:17:22;14.17;;;5.80;;
18576;SDS011;9418;52.694;13.294;2023-06-10T04:19:48;9.17;;;5.20;;
18576;SDS011;9418;52.694;13.294;2023-06-10T04:22:15;7.90;;;5.00;;
18576;SDS011;9418;52.694;13.294;2023-06-10T04:24:42;11.10;;;5.67;;
18576;SDS011;9418;52.694;13.294;2023-06-10T04:27:10;13.00;;;5.10;;
18576;SDS011;9418;52.694;13.294;2023-06-10T04:29:38;9.93;;;5.43;;
18576;SDS011;9418;52.694;13.294;2023-06-10T04:32:04;12.10;;;4.63;;
18576;SDS011;9418;52.694;13.294;2023-06-10T04:34:32;12.70;;;5.10;;
18576;SDS011;9418;52.694;13.294;2023-06-10T04:36:59;8.23;;;5.00;;
18576;SDS011;9418;52.694;13.294;2023-06-10T04:39:25;8.17;;;4.53;;
18576;SDS011;9418;52.694;13.294;2023-06-10T04:41:52;12.00;;;4.90;;
18576;SDS011;9418;52.694;13.294;2023-06-10T04:44:19;10.43;;;5.20;;
18576;SDS011;9418;52.694;13.294;2023-06-10T04:46:47;11.67;;;4.80;;
18576;SDS011;9418;52.694;13.294;2023-06-10T04:49:14;15.83;;;6.10;;
18576;SDS011;9418;52.694;13.294;2023-06-10T04:51:40;9.73;;;4.40;;
18576;SDS011;9418;52.694;13.294;2023-06-10T04:54:07;9.30;;;5.07;;
18576;SDS011;9418;52.694;13.294;2023-06-10T04:56:33;15.77;;;5.17;;
18576;SDS011;9418;52.694;13.294;2023-06-10T04:59:00;13.90;;;4.90;;
18576;SDS011;9418;52.694;13.294;2023-06-10T05:01:26;10.93;;;4.67;;
18576;SDS011;9418;52.694;13.294;2023-06-10T05:03:54;13.07;;;6.07;;
18576;SDS011;9418;52.694;13.294;2023-06-10T05:06:21;14.40;;;5.10;;
18576;SDS011;9418;52.694;13.294;2023-06-10T05:08:48;9.67;;;4.40;;
18576;SDS011;9418;52.694;13.294;2023-06-10T05:11:14;9.03;;;5.33;;
18576;SDS011;9418;52.694;13.294;2023-06-10T05:13:41;9.23;;;4.80;;
18576;SDS011;9418;52.694;13.294;2023-06-10T05:16:09;12.53;;;5.10;;
18576;SDS011;9418;52.694;13.294;2023-06-10T05:18:35;11.80;;;5.60;;
18576;SDS011;9418;52.694;13.294;2023-06-10T05:21:03;7.33;;;4.70;;
18576;SDS011;9418;52.694;13.294;2023-06-10T05:23:30;8.50;;;4.73;;
18576;SDS011;9418;52.694;13.294;2023-06-10T05:25:56;11.43;;;5.20;;
18576;SDS011;9418;52.694;13.294;2023-06-10T05:28:23;12.17;;;4.53;;
18576;SDS011;9418;52.694;13.294;2023-06-10T05:30:49;9.60;;;5.80;;
18576;SDS011;9418;52.694;13.294;2023-06-10T05:33:16;13.73;;;5.60;;
18576;SDS011;9418;52.694;13.294;2023-06-10T05:35:43;6.73;;;4.73;;
18576;SDS011;9418;52.694;13.294;2023-06-10T05:38:11;8.43;;;5.30;;
18576;SDS011;9418;52.694;13.294;2023-06-10T05:40:37;9.60;;;4.47;;
18576;SDS011;9418;52.694;13.294;2023-06-10T05:43:04;9.70;;;5.83;;
18576;SDS011;9418;52.694;13.294;2023-06-10T05:45:30;7.27;;;4.40;;
18576;SDS011;9418;52.694;13.294;2023-06-10T05:47:57;9.60;;;4.87;;
18576;SDS011;9418;52.694;13.294;2023-06-10T05:50:23;10.70;;;5.70;;
18576;SDS011;9418;52.694;13.294;2023-06-10T05:52:50;9.33;;;5.50;;
18576;SDS011;9418;52.694;13.294;2023-06-10T05:55:20;7.30;;;4.80;;
18576;SDS011;9418;52.694;13.294;2023-06-10T05:57:46;11.03;;;5.73;;
18576;SDS011;9418;52.694;13.294;2023-06-10T06:00:13;12.90;;;6.13;;
18576;SDS011;9418;52.694;13.294;2023-06-10T06:02:40;10.67;;;6.10;;
18576;SDS011;9418;52.694;13.294;2023-06-10T06:05:07;9.30;;;5.50;;
18576;SDS011;9418;52.694;13.294;2023-06-10T06:07:33;11.53;;;5.87;;
18576;SDS011;9418;52.694;13.294;2023-06-10T06:10:00;9.83;;;5.10;;
18576;SDS011;9418;52.694;13.294;2023-06-10T06:12:28;8.53;;;4.80;;
18576;SDS011;9418;52.694;13.294;2023-06-10T06:14:54;12.00;;;5.50;;
18576;SDS011;9418;52.694;13.294;2023-06-10T06:17:21;14.10;;;5.93;;
18576;SDS011;9418;52.694;13.294;2023-06-10T06:19:47;28.07;;;5.37;;
18576;SDS011;9418;52.694;13.294;2023-06-10T06:22:14;11.90;;;6.30;;
18576;SDS011;9418;52.694;13.294;2023-06-10T06:24:45;16.33;;;5.77;;
18576;SDS011;9418;52.694;13.294;2023-06-10T06:27:11;11.70;;;5.20;;
18576;SDS011;9418;52.694;13.294;2023-06-10T06:29:39;11.47;;;5.87;;
18576;SDS011;9418;52.694;13.294;2023-06-10T06:32:06;14.90;;;5.87;;
18576;SDS011;9418;52.694;13.294;2023-06-10T06:34:33;11.60;;;5.30;;
18576;SDS011;9418;52.694;13.294;2023-06-10T06:37:00;6.93;;;5.57;;
18576;SDS011;9418;52.694;13.294;2023-06-10T06:39:26;9.60;;;5.30;;
18576;SDS011;9418;52.694;13.294;2023-06-10T06:41:53;7.60;;;5.50;;
18576;SDS011;9418;52.694;13.294;2023-06-10T06:44:19;16.93;;;6.70;;
18576;SDS011;9418;52.694;13.294;2023-06-10T06:46:47;11.10;;;5.10;;
18576;SDS011;9418;52.694;13.294;2023-06-10T06:49:14;16.70;;;5.37;;
18576;SDS011;9418;52.694;13.294;2023-06-10T06:51:40;9.93;;;5.87;;
18576;SDS011;9418;52.694;13.294;2023-06-10T06:54:07;13.30;;;5.80;;
18576;SDS011;9418;52.694;13.294;2023-06-10T06:56:33;15.07;;;6.40;;
18576;SDS011;9418;52.694;13.294;2023-06-10T06:59:00;16.73;;;5.50;;
18576;SDS011;9418;52.694;13.294;2023-06-10T07:01:26;9.40;;;7.03;;
18576;SDS011;9418;52.694;13.294;2023-06-10T07:03:54;9.53;;;6.13;;
18576;SDS011;9418;52.694;13.294;2023-06-10T07:06:21;13.47;;;5.50;;
18576;SDS011;9418;52.694;13.294;2023-06-10T07:08:48;9.03;;;5.73;;
18576;SDS011;9418;52.694;13.294;2023-06-10T07:11:16;13.63;;;6.50;;
18576;SDS011;9418;52.694;13.294;2023-06-10T07:13:42;9.40;;;5.80;;
18576;SDS011;9418;52.694;13.294;2023-06-10T07:16:09;18.10;;;6.27;;
18576;SDS011;9418;52.694;13.294;2023-06-10T07:18:35;13.73;;;6.30;;
18576;SDS011;9418;52.694;13.294;2023-06-10T07:21:03;7.97;;;6.17;;
18576;SDS011;9418;52.694;13.294;2023-06-10T07:23:30;8.00;;;5.20;;
18576;SDS011;9418;52.694;13.294;2023-06-10T07:25:56;11.43;;;6.73;;
18576;SDS011;9418;52.694;13.294;2023-06-10T07:28:23;9.13;;;6.40;;
18576;SDS011;9418;52.694;13.294;2023-06-10T07:30:49;10.30;;;6.30;;
18576;SDS011;9418;52.694;13.294;2023-06-10T07:33:16;11.23;;;6.50;;
18576;SDS011;9418;52.694;13.294;2023-06-10T07:35:42;15.07;;;6.50;;
18576;SDS011;9418;52.694;13.294;2023-06-10T07:38:10;9.37;;;6.37;;
18576;SDS011;9418;52.694;13.294;2023-06-10T07:40:37;13.63;;;6.40;;
18576;SDS011;9418;52.694;13.294;2023-06-10T07:43:03;9.00;;;6.20;;
18576;SDS011;9418;52.694;13.294;2023-06-10T07:45:30;7.07;;;6.27;;
18576;SDS011;9418;52.694;13.294;2023-06-10T07:47:56;8.90;;;5.83;;
18576;SDS011;9418;52.694;13.294;2023-06-10T07:50:23;16.43;;;6.93;;
18576;SDS011;9418;52.694;13.294;2023-06-10T07:52:49;9.70;;;6.00;;
18576;SDS011;9418;52.694;13.294;2023-06-10T07:55:17;12.33;;;5.30;;
18576;SDS011;9418;52.694;13.294;2023-06-10T07:57:44;9.40;;;6.70;;
18576;SDS011;9418;52.694;13.294;2023-06-10T08:00:11;9.23;;;6.83;;
18576;SDS011;9418;52.694;13.294;2023-06-10T08:02:38;7.73;;;6.00;;
18576;SDS011;9418;52.694;13.294;2023-06-10T08:05:04;13.00;;;6.20;;
18576;SDS011;9418;52.694;13.294;2023-06-10T08:07:31;9.60;;;6.40;;
18576;SDS011;9418;52.694;13.294;2023-06-10T08:09:58;11.07;;;6.83;;
18576;SDS011;9418;52.694;13.294;2023-06-10T08:12:25;10.03;;;6.13;;
18576;SDS011;9418;52.694;13.294;2023-06-10T08:14:52;13.03;;;7.93;;
18576;SDS011;9418;52.694;13.294;2023-06-10T08:17:19;9.20;;;6.60;;
18576;SDS011;9418;52.694;13.294;2023-06-10T08:19:46;12.40;;;6.90;;
18576;SDS011;9418;52.694;13.294;2023-06-10T08:22:12;9.00;;;6.97;;
18576;SDS011;9418;52.694;13.294;2023-06-10T08:24:39;9.57;;;6.53;;
18576;SDS011;9418;52.694;13.294;2023-06-10T08:27:06;20.00;;;6.73;;
18576;SDS011;9418;52.694;13.294;2023-06-10T08:29:34;14.00;;;7.10;;
18576;SDS011;9418;52.694;13.294;2023-06-10T08:32:00;14.03;;;6.73;;
18576;SDS011;9418;52.694;13.294;2023-06-10T08:34:27;12.23;;;6.20;;
18576;SDS011;9418;52.694;13.294;2023-06-10T08:36:54;7.63;;;6.73;;
18576;SDS011;9418;52.694;13.294;2023-06-10T08:39:21;9.10;;;6.97;;
18576;SDS011;9418;52.694;13.294;2023-06-10T08:41:54;9.70;;;6.50;;
18576;SDS011;9418;52.694;13.294;2023-06-10T08:44:36;16.33;;;6.87;;
18576;SDS011;9418;52.694;13.294;2023-06-10T08:47:05;11.27;;;6.83;;
18576;SDS011;9418;52.694;13.294;2023-06-10T08:49:37;13.60;;;6.17;;
18576;SDS011;9418;52.694;13.294;2023-06-10T08:52:07;8.43;;;5.87;;
18576;SDS011;9418;52.694;13.294;2023-06-10T08:54:34;13.80;;;6.70;;
18576;SDS011;9418;52.694;13.294;2023-06-10T08:57:05;17.20;;;7.03;;
18576;SDS011;9418;52.694;13.294;2023-06-10T08:59:32;9.97;;;6.67;;
18576;SDS011;9418;52.694;13.294;2023-06-10T09:02:00;9.23;;;6.70;;
18576;SDS011;9418;52.694;13.294;2023-06-10T09:04:28;9.63;;;6.10;;
18576;SDS011;9418;52.694;13.294;2023-06-10T09:06:55;6.43;;;5.73;;
18576;SDS011;9418;52.694;13.294;2023-06-10T09:09:23;11.13;;;6.20;;
18576;SDS011;9418;52.694;13.294;2023-06-10T09:11:51;13.80;;;5.83;;
18576;SDS011;9418;52.694;13.294;2023-06-10T09:14:17;12.37;;;7.10;;
18576;SDS011;9418;52.694;13.294;2023-06-10T09:16:44;7.93;;;6.17;;
18576;SDS011;9418;52.694;13.294;2023-06-10T09:19:14;8.27;;;5.80;;
18576;SDS011;9418;52.694;13.294;2023-06-10T09:21:42;15.63;;;6.37;;
18576;SDS011;9418;52.694;13.294;2023-06-10T09:24:09;9.83;;;6.90;;
18576;SDS011;9418;52.694;13.294;2023-06-10T09:26:36;9.33;;;5.70;;
18576;SDS011;9418;52.694;13.294;2023-06-10T09:29:03;12.43;;;6.47;;
18576;SDS011;9418;52.694;13.294;2023-06-10T09:31:30;15.70;;;6.57;;
18576;SDS011;9418;52.694;13.294;2023-06-10T09:34:06;7.97;;;7.17;;
18576;SDS011;9418;52.694;13.294;2023-06-10T09:36:36;8.63;;;6.10;;
18576;SDS011;9418;52.694;13.294;2023-06-10T09:39:03;10.70;;;6.70;;
18576;SDS011;9418;52.694;13.294;2023-06-10T09:41:33;11.13;;;6.60;;
18576;SDS011;9418;52.694;13.294;2023-06-10T09:44:00;11.00;;;6.13;;
18576;SDS011;9418;52.694;13.294;2023-06-10T09:46:30;9.63;;;6.40;;
18576;SDS011;9418;52.694;13.294;2023-06-10T09:48:57;11.73;;;6.90;;
18576;SDS011;9418;52.694;13.294;2023-06-10T09:51:25;17.37;;;6.17;;
18576;SDS011;9418;52.694;13.294;2023-06-10T09:53:53;11.50;;;6.47;;
18576;SDS011;9418;52.694;13.294;2023-06-10T09:56:20;10.20;;;6.50;;
18576;SDS011;9418;52.694;13.294;2023-06-10T09:58:49;12.70;;;6.60;;
18576;SDS011;9418;52.694;13.294;2023-06-10T10:01:18;12.63;;;7.40;;
18576;SDS011;9418;52.694;13.294;2023-06-10T10:03:45;11.20;;;6.10;;
18576;SDS011;9418;52.694;13.294;2023-06-10T10:06:12;13.33;;;6.77;;
18576;SDS011;9418;52.694;13.294;2023-06-10T10:08:39;9.00;;;6.67;;
18576;SDS011;9418;52.694;13.294;2023-06-10T10:11:07;10.30;;;5.90;;
18576;SDS011;9418;52.694;13.294;2023-06-10T10:13:34;14.00;;;6.90;;
18576;SDS011;9418;52.694;13.294;2023-06-10T10:16:01;11.80;;;6.03;;
18576;SDS011;9418;52.694;13.294;2023-06-10T10:18:32;10.63;;;5.83;;
18576;SDS011;9418;52.694;13.294;2023-06-10T10:21:01;7.77;;;5.50;;
18576;SDS011;9418;52.694;13.294;2023-06-10T10:23:32;14.10;;;5.63;;
18576;SDS011;9418;52.694;13.294;2023-06-10T10:26:04;11.70;;;6.50;;
18576;SDS011;9418;52.694;13.294;2023-06-10T10:28:37;10.30;;;6.17;;
18576;SDS011;9418;52.694;13.294;2023-06-10T10:31:10;16.43;;;6.47;;
18576;SDS011;9418;52.694;13.294;2023-06-10T10:33:43;12.43;;;5.87;;
18576;SDS011;9418;52.694;13.294;2023-06-10T10:36:18;6.53;;;5.90;;
18576;SDS011;9418;52.694;13.294;2023-06-10T10:38:45;8.80;;;6.40;;
18576;SDS011;9418;52.694;13.294;2023-06-10T10:41:14;18.03;;;6.23;;
18576;SDS011;9418;52.694;13.294;2023-06-10T10:43:42;11.63;;;5.80;;
18576;SDS011;9418;52.694;13.294;2023-06-10T10:46:11;14.53;;;6.10;;
18576;SDS011;9418;52.694;13.294;2023-06-10T10:48:39;19.73;;;6.87;;
18576;SDS011;9418;52.694;13.294;2023-06-10T10:51:06;7.73;;;6.00;;
18576;SDS011;9418;52.694;13.294;2023-06-10T10:53:32;23.73;;;5.93;;
18576;SDS011;9418;52.694;13.294;2023-06-10T10:55:59;7.93;;;5.93;;
18576;SDS011;9418;52.694;13.294;2023-06-10T10:58:31;13.00;;;6.43;;
18576;SDS011;9418;52.694;13.294;2023-06-10T11:00:58;9.27;;;6.43;;
18576;SDS011;9418;52.694;13.294;2023-06-10T11:03:27;12.70;;;5.70;;
18576;SDS011;9418;52.694;13.294;2023-06-10T11:05:56;10.30;;;6.70;;
18576;SDS011;9418;52.694;13.294;2023-06-10T11:11:18;8.47;;;5.57;;
18576;SDS011;9418;52.694;13.294;2023-06-10T11:16:52;6.70;;;6.00;;
18576;SDS011;9418;52.694;13.294;2023-06-10T11:19:33;9.33;;;6.50;;
18576;SDS011;9418;52.694;13.294;2023-06-10T11:22:02;12.40;;;6.90;;
18576;SDS011;9418;52.694;13.294;2023-06-10T11:24:29;13.03;;;6.63;;
18576;SDS011;9418;52.694;13.294;2023-06-10T11:29:55;11.83;;;5.60;;
18576;SDS011;9418;52.694;13.294;2023-06-10T11:32:23;8.73;;;5.50;;
18576;SDS011;9418;52.694;13.294;2023-06-10T11:34:54;15.50;;;5.70;;
18576;SDS011;9418;52.694;13.294;2023-06-10T11:37:21;6.30;;;5.70;;
18576;SDS011;9418;52.694;13.294;2023-06-10T11:39:47;16.93;;;5.60;;
18576;SDS011;9418;52.694;13.294;2023-06-10T11:42:17;9.07;;;5.83;;
18576;SDS011;9418;52.694;13.294;2023-06-10T11:44:47;15.70;;;6.73;;
18576;SDS011;9418;52.694;13.294;2023-06-10T11:47:16;6.87;;;5.37;;
18576;SDS011;9418;52.694;13.294;2023-06-10T11:49:42;7.03;;;5.47;;
18576;SDS011;9418;52.694;13.294;2023-06-10T11:52:09;6.80;;;5.20;;
18576;SDS011;9418;52.694;13.294;2023-06-10T11:54:36;10.10;;;4.80;;
18576;SDS011;9418;52.694;13.294;2023-06-10T11:57:03;6.63;;;5.67;;
18576;SDS011;9418;52.694;13.294;2023-06-10T11:59:33;10.63;;;4.80;;
18576;SDS011;9418;52.694;13.294;2023-06-10T12:01:59;8.50;;;5.10;;
18576;SDS011;9418;52.694;13.294;2023-06-10T12:04:27;6.10;;;4.80;;
18576;SDS011;9418;52.694;13.294;2023-06-10T12:06:55;10.90;;;5.37;;
18576;SDS011;9418;52.694;13.294;2023-06-10T12:09:22;14.67;;;4.33;;
18576;SDS011;9418;52.694;13.294;2023-06-10T12:11:50;6.20;;;4.83;;
18576;SDS011;9418;52.694;13.294;2023-06-10T12:17:23;5.57;;;4.83;;
18576;SDS011;9418;52.694;13.294;2023-06-10T12:19:51;4.83;;;4.43;;
18576;SDS011;9418;52.694;13.294;2023-06-10T12:22:18;3.87;;;3.57;;
18576;SDS011;9418;52.694;13.294;2023-06-10T12:24:45;4.73;;;4.33;;
18576;SDS011;9418;52.694;13.294;2023-06-10T12:27:24;9.67;;;4.13;;
18576;SDS011;9418;52.694;13.294;2023-06-10T12:29:51;10.90;;;4.60;;
18576;SDS011;9418;52.694;13.294;2023-06-10T12:32:19;6.00;;;4.50;;
18576;SDS011;9418;52.694;13.294;2023-06-10T12:34:47;6.90;;;4.60;;
18576;SDS011;9418;52.694;13.294;2023-06-10T12:37:15;4.87;;;4.40;;
18576;SDS011;9418;52.694;13.294;2023-06-10T12:39:42;4.00;;;3.70;;
18576;SDS011;9418;52.694;13.294;2023-06-10T12:42:18;4.10;;;3.80;;
18576;SDS011;9418;52.694;13.294;2023-06-10T12:44:52;5.97;;;4.27;;
18576;SDS011;9418;52.694;13.294;2023-06-10T12:47:20;5.10;;;4.60;;
18576;SDS011;9418;52.694;13.294;2023-06-10T12:49:56;5.10;;;4.60;;
18576;SDS011;9418;52.694;13.294;2023-06-10T12:52:25;5.30;;;4.90;;
18576;SDS011;9418;52.694;13.294;2023-06-10T12:54:51;6.40;;;4.70;;
18576;SDS011;9418;52.694;13.294;2023-06-10T12:57:19;7.17;;;5.67;;
18576;SDS011;9418;52.694;13.294;2023-06-10T12:59:45;8.83;;;5.50;;
18576;SDS011;9418;52.694;13.294;2023-06-10T13:02:17;9.33;;;5.90;;
18576;SDS011;9418;52.694;13.294;2023-06-10T13:04:44;7.53;;;6.10;;
18576;SDS011;9418;52.694;13.294;2023-06-10T13:07:11;7.33;;;5.60;;
18576;SDS011;9418;52.694;13.294;2023-06-10T13:09:39;7.20;;;5.50;;
18576;SDS011;9418;52.694;13.294;2023-06-10T13:12:06;12.80;;;5.70;;
18576;SDS011;9418;52.694;13.294;2023-06-10T13:14:34;6.27;;;5.77;;
18576;SDS011;9418;52.694;13.294;2023-06-10T13:17:02;6.27;;;5.67;;
18576;SDS011;9418;52.694;13.294;2023-06-10T13:19:30;8.90;;;6.23;;
18576;SDS011;9418;52.694;13.294;2023-06-10T13:21:57;6.03;;;5.23;;
18576;SDS011;9418;52.694;13.294;2023-06-10T13:24:24;21.63;;;7.63;;
18576;SDS011;9418;52.694;13.294;2023-06-10T13:26:52;5.93;;;5.43;;
18576;SDS011;9418;52.694;13.294;2023-06-10T13:29:19;9.90;;;5.03;;
18576;SDS011;9418;52.694;13.294;2023-06-10T13:31:46;5.43;;;4.97;;
18576;SDS011;9418;52.694;13.294;2023-06-10T13:34:12;5.87;;;5.37;;
18576;SDS011;9418;52.694;13.294;2023-06-10T13:36:39;8.77;;;5.00;;
18576;SDS011;9418;52.694;13.294;2023-06-10T13:39:06;9.93;;;5.90;;
18576;SDS011;9418;52.694;13.294;2023-06-10T13:41:32;5.67;;;5.13;;
18576;SDS011;9418;52.694;13.294;2023-06-10T13:44:00;7.23;;;5.83;;
18576;SDS011;9418;52.694;13.294;2023-06-10T13:46:27;6.57;;;5.20;;
18576;SDS011;9418;52.694;13.294;2023-06-10T13:48:53;5.07;;;4.53;;
18576;SDS011;9418;52.694;13.294;2023-06-10T13:51:20;5.53;;;4.90;;
18576;SDS011;9418;52.694;13.294;2023-06-10T13:53:46;8.53;;;4.47;;
18576;SDS011;9418;52.694;13.294;2023-06-10T13:56:13;8.77;;;4.80;;
18576;SDS011;9418;52.694;13.294;2023-06-10T13:58:39;8.73;;;5.33;;
18576;SDS011;9418;52.694;13.294;2023-06-10T14:01:09;6.87;;;5.20;;
18576;SDS011;9418;52.694;13.294;2023-06-10T14:03:35;13.83;;;5.60;;
18576;SDS011;9418;52.694;13.294;2023-06-10T14:06:02;5.77;;;5.20;;
18576;SDS011;9418;52.694;13.294;2023-06-10T14:08:29;8.40;;;5.80;;
18576;SDS011;9418;52.694;13.294;2023-06-10T14:10:55;6.33;;;5.40;;
18576;SDS011;9418;52.694;13.294;2023-06-10T14:13:22;9.20;;;5.63;;
18576;SDS011;9418;52.694;13.294;2023-06-10T14:15:48;7.77;;;5.30;;
18576;SDS011;9418;52.694;13.294;2023-06-10T14:18:16;6.40;;;4.77;;
18576;SDS011;9418;52.694;13.294;2023-06-10T14:20:42;6.20;;;4.30;;
18576;SDS011;9418;52.694;13.294;2023-06-10T14:23:09;13.27;;;4.70;;
18576;SDS011;9418;52.694;13.294;2023-06-10T14:25:36;14.50;;;4.80;;
18576;SDS011;9418;52.694;13.294;2023-06-10T14:28:03;9.23;;;5.13;;
18576;SDS011;9418;52.694;13.294;2023-06-10T14:30:29;5.27;;;4.97;;
18576;SDS011;9418;52.694;13.294;2023-06-10T14:32:56;5.10;;;4.33;;
18576;SDS011;9418;52.694;13.294;2023-06-10T14:35:24;6.57;;;4.77;;
18576;SDS011;9418;52.694;13.294;2023-06-10T14:37:50;5.47;;;4.57;;
18576;SDS011;9418;52.694;13.294;2023-06-10T14:40:17;4.83;;;4.37;;
18576;SDS011;9418;52.694;13.294;2023-06-10T14:42:43;8.80;;;4.50;;
18576;SDS011;9418;52.694;13.294;2023-06-10T14:45:10;11.20;;;4.40;;
18576;SDS011;9418;52.694;13.294;2023-06-10T14:47:36;5.57;;;4.30;;
18576;SDS011;9418;52.694;13.294;2023-06-10T14:50:03;5.70;;;4.27;;
18576;SDS011;9418;52.694;13.294;2023-06-10T14:52:31;3.70;;;3.50;;
18576;SDS011;9418;52.694;13.294;2023-06-10T14:54:58;14.50;;;4.40;;